createdAt,value
2023-04-21T00:00:18.696Z,7.96
2023-04-21T00:02:45.281Z,7.77
2023-04-21T00:05:12.058Z,7.42
2023-04-21T00:07:38.597Z,7.47
2023-04-21T00:10:07.307Z,7.71
2023-04-21T00:12:33.696Z,7.81
2023-04-21T00:15:00.250Z,7.73
2023-04-21T00:17:26.868Z,7.93
2023-04-21T00:19:53.201Z,7.97
2023-04-21T00:22:19.508Z,7.97
2023-04-21T00:24:45.791Z,8.00
2023-04-21T00:27:12.111Z,8.07
2023-04-21T00:29:38.510Z,8.09
2023-04-21T00:32:05.080Z,8.23
2023-04-21T00:34:31.391Z,8.34
2023-04-21T00:36:57.703Z,8.32
2023-04-21T00:39:24.122Z,8.40
2023-04-21T00:41:50.442Z,8.49
2023-04-21T00:44:16.899Z,8.45
2023-04-21T00:46:43.220Z,8.38
2023-04-21T00:49:09.901Z,8.38
2023-04-21T00:51:37.277Z,8.39
2023-04-21T00:54:07.908Z,8.43
2023-04-21T00:56:35.494Z,8.45
2023-04-21T00:59:01.910Z,8.45
2023-04-21T01:01:29.717Z,8.58
2023-04-21T01:04:00.030Z,8.51
2023-04-21T01:06:33.003Z,8.51
2023-04-21T01:09:00.201Z,8.58
2023-04-21T01:11:26.758Z,8.48
2023-04-21T01:13:54.023Z,8.48
2023-04-21T01:16:21.540Z,8.60
2023-04-21T01:18:47.927Z,8.54
2023-04-21T01:21:15.134Z,8.59
2023-04-21T01:23:41.474Z,8.67
2023-04-21T01:26:07.847Z,8.73
2023-04-21T01:28:34.826Z,8.58
2023-04-21T01:31:01.159Z,8.60
2023-04-21T01:33:27.917Z,8.69
2023-04-21T01:35:54.620Z,8.72
2023-04-21T01:38:21.526Z,8.72
2023-04-21T01:40:50.760Z,8.76
2023-04-21T01:43:20.069Z,8.68
2023-04-21T01:45:47.975Z,8.62
2023-04-21T01:48:14.483Z,8.64
2023-04-21T01:50:40.898Z,8.55
2023-04-21T01:53:07.268Z,8.54
2023-04-21T01:55:33.796Z,8.53
2023-04-21T01:58:00.151Z,8.53
2023-04-21T02:00:26.840Z,8.50
2023-04-21T02:02:53.418Z,8.45
2023-04-21T02:05:19.893Z,8.63
2023-04-21T02:07:46.217Z,8.51
2023-04-21T02:10:13.154Z,8.51
2023-04-21T02:12:39.532Z,8.41
2023-04-21T02:15:06.736Z,8.51
2023-04-21T02:17:33.098Z,8.51
2023-04-21T02:20:00.007Z,8.36
2023-04-21T02:22:27.141Z,8.50
2023-04-21T02:24:53.453Z,8.27
2023-04-21T02:27:19.826Z,8.33
2023-04-21T02:29:46.135Z,8.35
2023-04-21T02:32:22.161Z,8.33
2023-04-21T02:34:52.062Z,8.26
2023-04-21T02:37:18.436Z,8.38
2023-04-21T02:39:44.739Z,8.32
2023-04-21T02:42:11.061Z,8.33
2023-04-21T02:44:38.043Z,8.30
2023-04-21T02:47:04.594Z,8.31
2023-04-21T02:49:30.945Z,8.50
2023-04-21T02:51:58.283Z,8.35
2023-04-21T02:54:24.685Z,8.28
2023-04-21T02:56:50.991Z,8.41
2023-04-21T02:59:17.422Z,8.30
2023-04-21T03:01:43.775Z,8.29
2023-04-21T03:04:10.168Z,8.29
2023-04-21T03:06:36.540Z,8.27
2023-04-21T03:09:02.911Z,8.18
2023-04-21T03:11:29.237Z,8.21
2023-04-21T03:13:55.550Z,8.42
2023-04-21T03:16:21.874Z,8.27
2023-04-21T03:18:48.229Z,8.32
2023-04-21T03:21:14.586Z,8.31
2023-04-21T03:23:40.918Z,8.19
2023-04-21T03:26:08.120Z,8.20
2023-04-21T03:28:34.785Z,8.17
2023-04-21T03:31:01.086Z,8.08
2023-04-21T03:33:27.388Z,8.09
2023-04-21T03:35:53.697Z,8.07
2023-04-21T03:38:20.000Z,8.14
2023-04-21T03:40:46.307Z,8.17
2023-04-21T03:43:12.606Z,8.13
2023-04-21T03:45:38.973Z,8.17
2023-04-21T03:48:05.681Z,8.18
2023-04-21T03:50:32.063Z,8.13
2023-04-21T03:52:58.357Z,8.06
2023-04-21T03:55:24.697Z,7.98
2023-04-21T03:57:51.018Z,8.16
2023-04-21T04:00:17.422Z,8.10
2023-04-21T04:02:44.002Z,8.02
2023-04-21T04:05:10.452Z,8.21
2023-04-21T04:07:36.800Z,8.23
2023-04-21T04:10:03.499Z,8.24
2023-04-21T04:12:29.800Z,8.24
2023-04-21T04:14:56.103Z,8.18
2023-04-21T04:17:22.542Z,8.13
2023-04-21T04:19:48.928Z,8.21
2023-04-21T04:22:15.236Z,8.15
2023-04-21T04:24:41.637Z,8.15
2023-04-21T04:27:07.955Z,8.13
2023-04-21T04:29:34.277Z,8.39
2023-04-21T04:32:00.593Z,8.32
2023-04-21T04:34:26.930Z,8.31
2023-04-21T04:36:53.237Z,8.34
2023-04-21T04:39:19.787Z,8.58
2023-04-21T04:41:46.299Z,8.52
2023-04-21T04:44:12.595Z,8.58
2023-04-21T04:46:38.963Z,8.52
2023-04-21T04:49:05.464Z,8.73
2023-04-21T04:51:31.773Z,8.84
2023-04-21T04:53:58.068Z,8.65
2023-04-21T04:56:24.378Z,8.59
2023-04-21T04:58:51.710Z,8.53
2023-04-21T05:01:18.544Z,8.73
2023-04-21T05:03:46.790Z,8.54
2023-04-21T05:06:13.304Z,8.57
2023-04-21T05:08:39.894Z,8.59
2023-04-21T05:11:06.342Z,8.47
2023-04-21T05:13:32.657Z,8.43
2023-04-21T05:16:00.040Z,8.52
2023-04-21T05:18:26.352Z,8.64
2023-04-21T05:20:52.647Z,8.75
2023-04-21T05:23:19.182Z,8.80
2023-04-21T05:25:45.469Z,8.81
2023-04-21T05:28:11.768Z,8.88
2023-04-21T05:30:38.161Z,8.86
2023-04-21T05:33:04.544Z,8.76
2023-04-21T05:35:31.132Z,8.67
2023-04-21T05:37:57.442Z,8.86
2023-04-21T05:40:23.743Z,8.91
2023-04-21T05:42:50.167Z,9.13
2023-04-21T05:45:16.554Z,9.06
2023-04-21T05:47:42.981Z,9.41
2023-04-21T05:50:09.544Z,10.02
2023-04-21T05:52:35.855Z,10.40
2023-04-21T05:55:02.163Z,11.35
2023-04-21T05:57:28.500Z,11.74
2023-04-21T05:59:54.796Z,13.11
2023-04-21T06:02:21.911Z,13.57
2023-04-21T06:04:48.461Z,13.52
2023-04-21T06:07:16.369Z,14.13
2023-04-21T06:09:44.464Z,14.39
2023-04-21T06:12:10.783Z,14.16
2023-04-21T06:14:37.073Z,14.48
2023-04-21T06:17:03.403Z,14.61
2023-04-21T06:19:29.730Z,14.98
2023-04-21T06:21:57.059Z,14.53
2023-04-21T06:24:23.383Z,14.14
2023-04-21T06:26:49.684Z,14.18
2023-04-21T06:29:16.010Z,14.64
2023-04-21T06:31:42.403Z,13.94
2023-04-21T06:34:08.755Z,13.97
2023-04-21T06:36:35.077Z,12.93
2023-04-21T06:39:01.391Z,12.77
2023-04-21T06:41:27.694Z,12.59
2023-04-21T06:43:53.983Z,11.92
2023-04-21T06:46:20.379Z,12.46
2023-04-21T06:48:46.693Z,12.35
2023-04-21T06:51:13.058Z,12.51
2023-04-21T06:53:39.367Z,12.22
2023-04-21T06:56:06.031Z,12.22
2023-04-21T06:58:32.334Z,12.71
2023-04-21T07:00:58.703Z,12.62
2023-04-21T07:03:25.157Z,12.71
2023-04-21T07:05:51.754Z,12.77
2023-04-21T07:08:18.113Z,12.86
2023-04-21T07:10:44.465Z,12.96
2023-04-21T07:13:10.804Z,13.28
2023-04-21T07:15:37.188Z,12.94
2023-04-21T07:18:03.710Z,13.48
2023-04-21T07:20:30.158Z,13.11
2023-04-21T07:22:56.468Z,13.49
2023-04-21T07:25:22.782Z,13.64
2023-04-21T07:27:49.096Z,14.01
2023-04-21T07:30:15.567Z,12.89
2023-04-21T07:32:42.293Z,13.56
2023-04-21T07:35:08.740Z,13.32
2023-04-21T07:37:35.057Z,13.64
2023-04-21T07:40:01.509Z,13.69
2023-04-21T07:42:28.109Z,13.52
2023-04-21T07:44:54.447Z,13.17
2023-04-21T07:47:20.768Z,13.19
2023-04-21T07:49:47.225Z,13.09
2023-04-21T07:52:13.583Z,13.17
2023-04-21T07:54:39.918Z,13.06
2023-04-21T07:57:06.248Z,13.22
2023-04-21T07:59:32.572Z,13.50
2023-04-21T08:01:58.935Z,14.11
2023-04-21T08:04:25.650Z,14.31
2023-04-21T08:06:52.331Z,14.04
2023-04-21T08:09:19.214Z,14.43
2023-04-21T08:11:45.844Z,14.70
2023-04-21T08:14:12.235Z,15.03
2023-04-21T08:16:39.568Z,15.29
2023-04-21T08:19:07.017Z,15.18
2023-04-21T08:21:33.336Z,15.13
2023-04-21T08:23:59.966Z,15.28
2023-04-21T08:26:26.873Z,15.49
2023-04-21T08:28:53.225Z,15.32
2023-04-21T08:31:19.676Z,14.92
2023-04-21T08:33:57.947Z,15.20
2023-04-21T08:36:29.800Z,15.50
2023-04-21T08:38:57.222Z,15.51
2023-04-21T08:41:27.387Z,15.40
2023-04-21T08:43:53.685Z,15.63
2023-04-21T08:46:20.502Z,15.67
2023-04-21T08:48:47.577Z,15.20
2023-04-21T08:51:21.693Z,14.86
2023-04-21T08:53:47.997Z,14.58
2023-04-21T08:56:14.401Z,14.46
2023-04-21T08:58:40.725Z,14.42
2023-04-21T09:01:07.070Z,14.54
2023-04-21T09:03:33.733Z,14.79
2023-04-21T09:06:02.600Z,15.22
2023-04-21T09:08:29.516Z,15.10
2023-04-21T09:10:57.105Z,15.64
2023-04-21T09:13:30.539Z,15.80
2023-04-21T09:15:57.294Z,15.73
2023-04-21T09:18:26.025Z,15.36
2023-04-21T09:21:07.314Z,15.50
2023-04-21T09:23:41.272Z,15.54
2023-04-21T09:26:08.014Z,15.22
2023-04-21T09:28:34.315Z,15.48
2023-04-21T09:31:00.660Z,15.70
2023-04-21T09:33:31.007Z,15.93
2023-04-21T09:36:02.947Z,16.00
2023-04-21T09:38:29.258Z,16.36
2023-04-21T09:40:59.459Z,16.19
2023-04-21T09:43:25.826Z,16.39
2023-04-21T09:45:53.523Z,16.50
2023-04-21T09:48:22.614Z,16.41
2023-04-21T09:53:21.567Z,16.41
2023-04-21T09:55:51.541Z,16.41
2023-04-21T09:58:22.625Z,16.18
2023-04-21T10:00:51.792Z,16.37
2023-04-21T10:03:20.705Z,16.73
2023-04-21T10:05:47.317Z,16.99
2023-04-21T10:08:14.143Z,17.21
2023-04-21T10:10:41.222Z,16.92
2023-04-21T10:13:13.532Z,16.68
2023-04-21T10:15:41.578Z,16.98
2023-04-21T10:18:22.546Z,17.65
2023-04-21T10:21:11.126Z,17.63
2023-04-21T10:23:39.502Z,17.84
2023-04-21T10:26:20.876Z,18.13
2023-04-21T10:28:58.804Z,17.89
2023-04-21T10:31:33.997Z,18.16
2023-04-21T10:34:06.720Z,18.35
2023-04-21T10:36:42.863Z,18.80
2023-04-21T10:39:09.548Z,18.97
2023-04-21T10:41:35.869Z,18.91
2023-04-21T10:44:13.428Z,18.43
2023-04-21T10:46:45.324Z,18.80
2023-04-21T10:49:20.638Z,18.89
2023-04-21T10:51:58.881Z,18.78
2023-04-21T10:54:26.397Z,18.69
2023-04-21T10:56:57.988Z,18.46
2023-04-21T10:59:26.282Z,18.40
2023-04-21T11:01:52.949Z,18.84
2023-04-21T11:04:21.456Z,19.06
2023-04-21T11:07:11.123Z,18.51
2023-04-21T11:09:39.031Z,18.30
2023-04-21T11:12:08.476Z,18.47
2023-04-21T11:14:37.092Z,19.08
2023-04-21T11:17:05.559Z,18.75
2023-04-21T11:19:32.340Z,19.05
2023-04-21T11:21:59.353Z,19.28
2023-04-21T11:24:25.789Z,18.93
2023-04-21T11:26:52.238Z,19.54
2023-04-21T11:29:18.551Z,19.85
2023-04-21T11:31:46.159Z,20.15
2023-04-21T11:34:12.549Z,20.31
2023-04-21T11:36:41.232Z,20.15
2023-04-21T11:39:10.057Z,20.22
2023-04-21T11:41:39.777Z,20.02
2023-04-21T11:44:06.151Z,20.74
2023-04-21T11:46:32.662Z,20.60
2023-04-21T11:49:06.284Z,21.05
2023-04-21T11:51:37.952Z,21.28
2023-04-21T11:54:06.285Z,21.11
2023-04-21T11:56:40.206Z,20.29
2023-04-21T11:59:11.745Z,20.11
2023-04-21T12:01:52.439Z,20.71
2023-04-21T12:04:25.013Z,20.58
2023-04-21T12:07:01.795Z,20.68
2023-04-21T12:09:29.335Z,20.80
2023-04-21T12:11:58.382Z,20.93
2023-04-21T12:14:25.805Z,21.43
2023-04-21T12:16:56.105Z,21.33
2023-04-21T12:19:36.227Z,21.50
2023-04-21T12:22:07.267Z,21.45
2023-04-21T12:24:34.929Z,21.37
2023-04-21T12:27:03.567Z,21.27
2023-04-21T12:29:29.881Z,21.78
2023-04-21T12:31:56.270Z,21.44
2023-04-21T12:34:22.853Z,21.36
2023-04-21T12:36:49.556Z,21.86
2023-04-21T12:39:15.860Z,22.13
2023-04-21T12:41:42.151Z,21.33
2023-04-21T12:44:08.448Z,20.62
2023-04-21T12:46:35.139Z,20.17
2023-04-21T12:49:01.492Z,19.89
2023-04-21T12:51:27.794Z,20.02
2023-04-21T12:53:54.107Z,20.10
2023-04-21T12:56:20.445Z,19.85
2023-04-21T12:58:46.728Z,19.88
2023-04-21T13:01:13.067Z,19.86
2023-04-21T13:03:39.527Z,19.85
2023-04-21T13:06:06.185Z,19.99
2023-04-21T13:08:32.657Z,20.37
2023-04-21T13:10:59.026Z,20.83
2023-04-21T13:13:25.406Z,20.65
2023-04-21T13:15:51.735Z,20.83
2023-04-21T13:18:18.084Z,20.72
2023-04-21T13:20:44.388Z,20.26
2023-04-21T13:23:10.744Z,20.10
2023-04-21T13:25:37.095Z,20.09
2023-04-21T13:28:03.411Z,19.85
2023-04-21T13:30:29.802Z,19.86
2023-04-21T13:32:56.332Z,19.51
2023-04-21T13:35:22.731Z,19.29
2023-04-21T13:37:49.106Z,19.23
2023-04-21T13:40:15.659Z,19.48
2023-04-21T13:42:42.023Z,19.36
2023-04-21T13:45:08.915Z,19.26
2023-04-21T13:47:35.305Z,19.34
2023-04-21T13:50:02.036Z,19.66
2023-04-21T13:52:28.360Z,20.15
2023-04-21T13:54:54.692Z,20.23
2023-04-21T13:57:21.213Z,20.18
2023-04-21T13:59:47.794Z,20.35
2023-04-21T14:02:14.206Z,20.49
2023-04-21T14:04:40.747Z,20.16
2023-04-21T14:07:07.307Z,20.50
2023-04-21T14:09:34.285Z,20.62
2023-04-21T14:12:00.878Z,20.35
2023-04-21T14:14:37.772Z,20.27
2023-04-21T14:17:05.417Z,20.13
2023-04-21T14:19:31.946Z,20.12
2023-04-21T14:21:58.488Z,20.43
2023-04-21T14:24:24.843Z,20.12
2023-04-21T14:26:51.211Z,20.02
2023-04-21T14:29:17.533Z,20.23
2023-04-21T14:31:43.916Z,20.27
2023-04-21T14:34:10.423Z,20.44
2023-04-21T14:36:37.289Z,20.46
2023-04-21T14:39:03.698Z,20.15
2023-04-21T14:41:30.114Z,20.32
2023-04-21T14:43:56.505Z,19.89
2023-04-21T14:46:23.270Z,19.77
2023-04-21T14:48:49.700Z,19.52
2023-04-21T14:51:16.004Z,19.34
2023-04-21T14:53:42.335Z,19.12
2023-04-21T14:56:08.754Z,19.08
2023-04-21T14:58:35.059Z,19.30
2023-04-21T15:01:01.510Z,19.48
2023-04-21T15:03:28.083Z,19.77
2023-04-21T15:05:54.535Z,19.63
2023-04-21T15:08:20.876Z,19.55
2023-04-21T15:10:47.312Z,19.51
2023-04-21T15:13:14.756Z,19.52
2023-04-21T15:15:41.325Z,19.78
2023-04-21T15:18:07.669Z,19.47
2023-04-21T15:20:44.677Z,19.76
2023-04-21T15:23:12.199Z,19.77
2023-04-21T15:25:39.990Z,19.86
2023-04-21T15:28:06.462Z,19.86
2023-04-21T15:30:33.312Z,19.69
2023-04-21T15:32:59.675Z,20.10
2023-04-21T15:35:26.050Z,20.26
2023-04-21T15:37:52.519Z,20.61
2023-04-21T15:40:18.979Z,20.72
2023-04-21T15:42:45.450Z,20.84
2023-04-21T15:45:11.910Z,20.99
2023-04-21T15:47:38.267Z,20.97
2023-04-21T15:50:05.101Z,20.71
2023-04-21T15:52:31.420Z,20.48
2023-04-21T15:54:57.731Z,20.22
2023-04-21T15:57:24.056Z,20.16
2023-04-21T15:59:50.433Z,19.99
2023-04-21T16:02:17.085Z,19.97
2023-04-21T16:04:44.257Z,19.97
2023-04-21T16:07:11.157Z,19.69
2023-04-21T16:09:37.508Z,19.58
2023-04-21T16:12:03.904Z,19.44
2023-04-21T16:14:39.283Z,19.44
2023-04-21T16:17:09.333Z,19.42
2023-04-21T16:19:35.740Z,19.48
2023-04-21T16:22:02.122Z,19.55
2023-04-21T16:24:28.468Z,19.47
2023-04-21T16:26:54.828Z,19.50
2023-04-21T16:29:21.192Z,19.69
2023-04-21T16:31:47.617Z,19.81
2023-04-21T16:34:14.029Z,19.84
2023-04-21T16:36:40.388Z,19.75
2023-04-21T16:39:06.868Z,19.72
2023-04-21T16:41:33.191Z,19.85
2023-04-21T16:43:59.517Z,19.94
2023-04-21T16:46:25.920Z,19.75
2023-04-21T16:48:52.376Z,19.77
2023-04-21T16:51:18.788Z,19.71
2023-04-21T16:53:45.087Z,19.52
2023-04-21T16:56:11.423Z,19.58
2023-04-21T16:58:37.868Z,19.55
2023-04-21T17:01:04.670Z,19.42
2023-04-21T17:03:31.388Z,19.43
2023-04-21T17:05:57.889Z,19.16
2023-04-21T17:08:24.603Z,18.87
2023-04-21T17:10:50.894Z,18.69
2023-04-21T17:13:17.197Z,18.66
2023-04-21T17:15:43.524Z,18.69
2023-04-21T17:18:10.143Z,18.73
2023-04-21T17:20:36.530Z,18.67
2023-04-21T17:23:02.927Z,18.76
2023-04-21T17:25:29.257Z,18.76
2023-04-21T17:27:55.656Z,18.62
2023-04-21T17:30:21.943Z,18.66
2023-04-21T17:32:48.283Z,18.61
2023-04-21T17:35:14.732Z,18.52
2023-04-21T17:37:41.172Z,18.59
2023-04-21T17:40:08.082Z,18.44
2023-04-21T17:42:34.372Z,18.35
2023-04-21T17:45:00.665Z,18.16
2023-04-21T17:47:27.017Z,18.12
2023-04-21T17:49:53.415Z,18.08
2023-04-21T17:52:19.766Z,17.89
2023-04-21T17:54:46.091Z,17.71
2023-04-21T17:57:12.420Z,17.73
2023-04-21T17:59:38.858Z,17.83
2023-04-21T18:02:05.378Z,17.55
2023-04-21T18:04:31.887Z,17.37
2023-04-21T18:06:58.362Z,17.32
2023-04-21T18:09:24.723Z,17.29
2023-04-21T18:11:51.104Z,17.17
2023-04-21T18:14:17.657Z,17.04
2023-04-21T18:16:43.985Z,17.00
2023-04-21T18:19:10.294Z,17.03
2023-04-21T18:21:36.655Z,16.96
2023-04-21T18:24:02.992Z,16.98
2023-04-21T18:26:29.419Z,16.85
2023-04-21T18:28:55.790Z,16.80
2023-04-21T18:31:22.191Z,16.63
2023-04-21T18:33:48.549Z,16.63
2023-04-21T18:36:14.850Z,16.67
2023-04-21T18:38:41.188Z,16.60
2023-04-21T18:41:07.551Z,16.61
2023-04-21T18:43:34.453Z,16.49
2023-04-21T18:46:00.744Z,16.64
2023-04-21T18:48:27.081Z,16.44
2023-04-21T18:50:53.472Z,16.40
2023-04-21T18:53:19.770Z,16.30
2023-04-21T18:55:46.175Z,16.27
2023-04-21T18:58:12.503Z,16.20
2023-04-21T19:00:39.124Z,16.15
2023-04-21T19:03:06.182Z,16.15
2023-04-21T19:05:32.757Z,16.12
2023-04-21T19:07:59.067Z,16.09
2023-04-21T19:10:26.771Z,16.08
2023-04-21T19:12:53.139Z,15.98
2023-04-21T19:15:20.511Z,16.04
2023-04-21T19:17:46.890Z,15.90
2023-04-21T19:20:13.206Z,15.94
2023-04-21T19:22:39.514Z,15.88
2023-04-21T19:25:06.421Z,15.82
2023-04-21T19:27:32.747Z,15.70
2023-04-21T19:29:59.127Z,15.71
2023-04-21T19:32:25.845Z,15.69
2023-04-21T19:34:52.364Z,15.79
2023-04-21T19:37:18.751Z,15.70
2023-04-21T19:39:45.427Z,15.61
2023-04-21T19:42:11.725Z,15.45
2023-04-21T19:44:38.652Z,15.35
2023-04-21T19:47:05.333Z,15.33
2023-04-21T19:49:31.644Z,15.35
2023-04-21T19:51:58.017Z,15.19
2023-04-21T19:54:24.390Z,15.20
2023-04-21T19:56:50.704Z,15.22
2023-04-21T19:59:17.003Z,15.16
2023-04-21T20:01:43.442Z,15.12
2023-04-21T20:04:11.918Z,15.23
2023-04-21T20:06:38.869Z,15.12
2023-04-21T20:09:05.265Z,15.10
2023-04-21T20:11:33.042Z,15.04
2023-04-21T20:13:59.693Z,15.10
2023-04-21T20:16:26.644Z,15.09
2023-04-21T20:18:53.932Z,14.92
2023-04-21T20:21:20.259Z,14.97
2023-04-21T20:23:46.567Z,14.97
2023-04-21T20:26:12.964Z,14.87
2023-04-21T20:28:39.288Z,15.01
2023-04-21T20:31:05.692Z,14.90
2023-04-21T20:33:32.019Z,14.99
2023-04-21T20:35:58.408Z,15.01
2023-04-21T20:38:24.717Z,14.97
2023-04-21T20:40:51.045Z,14.97
2023-04-21T20:43:17.396Z,14.91
2023-04-21T20:45:43.715Z,14.97
2023-04-21T20:48:10.120Z,14.75
2023-04-21T20:50:36.581Z,14.71
2023-04-21T20:53:02.909Z,14.58
2023-04-21T20:55:30.389Z,14.72
2023-04-21T20:57:56.717Z,14.64
2023-04-21T21:00:23.062Z,14.57
2023-04-21T21:02:49.481Z,14.55
2023-04-21T21:05:15.951Z,14.50
2023-04-21T21:07:42.286Z,14.49
2023-04-21T21:10:08.935Z,14.50
2023-04-21T21:12:35.245Z,14.39
2023-04-21T21:15:01.626Z,14.29
2023-04-21T21:17:28.176Z,14.35
2023-04-21T21:19:54.602Z,14.19
2023-04-21T21:22:20.901Z,14.00
2023-04-21T21:24:47.213Z,13.79
2023-04-21T21:27:13.525Z,13.67
2023-04-21T21:29:40.083Z,13.48
2023-04-21T21:32:06.903Z,13.44
2023-04-21T21:34:33.392Z,13.40
2023-04-21T21:36:59.862Z,13.20
2023-04-21T21:39:26.804Z,13.13
2023-04-21T21:41:53.121Z,12.99
2023-04-21T21:44:19.593Z,12.96
2023-04-21T21:46:46.095Z,12.86
2023-04-21T21:49:12.634Z,12.84
2023-04-21T21:51:38.925Z,12.89
2023-04-21T21:54:05.302Z,12.99
2023-04-21T21:56:31.641Z,12.88
2023-04-21T21:58:58.471Z,12.85
2023-04-21T22:01:24.972Z,12.98
2023-04-21T22:03:51.471Z,13.05
2023-04-21T22:06:17.857Z,12.87
2023-04-21T22:08:44.198Z,12.89
2023-04-21T22:11:10.703Z,13.11
2023-04-21T22:13:37.024Z,13.14
2023-04-21T22:16:03.379Z,12.94
2023-04-21T22:18:29.757Z,13.09
2023-04-21T22:20:56.257Z,12.92
2023-04-21T22:23:22.588Z,12.78
2023-04-21T22:25:48.960Z,12.60
2023-04-21T22:28:15.342Z,12.64
2023-04-21T22:30:41.663Z,12.68
2023-04-21T22:33:07.981Z,12.77
2023-04-21T22:35:34.426Z,12.85
2023-04-21T22:38:00.737Z,12.77
2023-04-21T22:40:27.099Z,13.17
2023-04-21T22:42:53.535Z,13.08
2023-04-21T22:45:19.878Z,13.24
2023-04-21T22:47:46.295Z,13.21
2023-04-21T22:50:12.613Z,12.95
2023-04-21T22:52:38.927Z,12.85
2023-04-21T22:55:05.618Z,12.52
2023-04-21T22:57:32.045Z,12.71
2023-04-21T22:59:58.653Z,12.66
2023-04-21T23:02:25.125Z,12.59
2023-04-21T23:04:51.597Z,12.65
2023-04-21T23:07:17.998Z,12.60
2023-04-21T23:09:44.322Z,12.68
2023-04-21T23:12:10.640Z,12.49
2023-04-21T23:14:36.959Z,12.32
2023-04-21T23:17:04.483Z,12.36
2023-04-21T23:19:30.808Z,12.36
2023-04-21T23:21:57.129Z,12.33
2023-04-21T23:24:23.443Z,12.39
2023-04-21T23:26:49.740Z,12.26
2023-04-21T23:29:16.063Z,12.10
2023-04-21T23:31:42.479Z,12.14
2023-04-21T23:34:09.189Z,12.09
2023-04-21T23:36:35.489Z,12.09
2023-04-21T23:39:01.874Z,12.07
2023-04-21T23:41:28.255Z,11.92
2023-04-21T23:43:54.672Z,11.95
2023-04-21T23:46:21.112Z,11.92
2023-04-21T23:48:47.520Z,12.07
2023-04-21T23:51:13.872Z,11.97
2023-04-21T23:53:40.187Z,11.81
2023-04-21T23:56:06.796Z,11.83
2023-04-21T23:58:33.095Z,11.93
